< Typhoon 201120 2011 Season Typhoon 201201 >
Typhoon 201121 (WASHI)
General InformationTrack Information on Google MapsDetailed Wind InformationAccess Analytics MapList of All Images || NewsDisaster Info.WeblogTrackbackTyphoon FrontTwiphoonTyphoon Now!Typhoon ImaginationResourceGoogle EarthGE AnimationAtom FeedGeoJSON
Detalied Best Track (Time Zone = UTC)
Year Month Day Hour Lat. Long. Pressure (hPa) Wind (kt) Class Image Chart
2011 12 13 06 6.2 145.0 1004 0 2 Image Chart
2011 12 13 12 6.1 143.4 1006 0 2 Image Chart
2011 12 13 18 6.0 142.0 1004 0 2 Image Chart
2011 12 14 00 5.8 140.6 1006 0 2 Image Chart
2011 12 14 06 6.0 139.1 1004 0 2 Image Chart
2011 12 14 12 6.4 137.6 1006 0 2 Image Chart
2011 12 14 18 6.9 136.0 1004 0 2 Image Chart
2011 12 15 00 7.3 134.1 1004 0 2 Image Chart
2011 12 15 06 7.5 132.6 1000 35 3 Image Chart
2011 12 15 12 7.5 130.8 998 40 3 Image Chart
2011 12 15 18 7.4 129.4 998 40 3 Image Chart
2011 12 16 00 7.5 128.1 996 45 3 Image Chart
2011 12 16 06 7.9 126.9 992 50 4 Image Chart
2011 12 16 12 8.2 125.3 998 40 3 Image Chart
2011 12 16 18 8.7 124.0 1000 35 3 Image Chart
2011 12 17 00 9.0 122.5 996 40 3 Image Chart
2011 12 17 06 9.2 121.3 996 40 3 Image Chart
2011 12 17 12 9.7 120.1 996 40 3 Image Chart
2011 12 17 18 10.3 118.7 998 35 3 Image Chart
2011 12 18 00 10.1 117.0 998 35 3 Image Chart
2011 12 18 06 9.9 115.5 1000 35 3 Image Chart
2011 12 18 12 9.9 114.8 1002 35 3 Image Chart
2011 12 18 18 9.8 114.2 1002 35 3 Image Chart
2011 12 19 00 9.6 113.2 1006 0 2 Image Chart
Japan Meteorological Agency Best Track Data | Correction Date : 2012-01-18
< Typhoon 201120 2011 Season Typhoon 201201 >

Help